Time;durP1;ratioP1;P1;durP2;ratioP2;P2;SDS_P1;SDS_P2;PMS_P1;PMS_P2;Temp;Humidity;BMP_temperature;BMP_pressure;BME280_temperature;BME280_humidity;BME280_pressure;Samples;Min_cycle;Max_cycle;Signal;HPM_P1;HPM_P2
2022/06/17 00:01:21;;;;;;;12.43;8.45;;;;;;;16.50;74.71;102255.75;4934357;29;20027;-94
2022/06/17 00:03:48;;;;;;;10.52;8.90;;;;;;;16.51;74.80;102258.28;4949399;29;20019;-93
2022/06/17 00:06:14;;;;;;;14.40;8.85;;;;;;;16.46;74.58;102257.78;4935043;29;20020;-93
2022/06/17 00:08:43;;;;;;;10.20;8.90;;;;;;;16.44;75.16;102261.53;4944944;29;20029;-93
2022/06/17 00:11:15;;;;;;;9.65;8.65;;;;;;;16.41;74.81;102249.34;4954313;28;20042;-94
2022/06/17 00:13:40;;;;;;;10.10;9.07;;;;;;;16.39;75.09;102255.69;4952504;29;20050;-93
2022/06/17 00:16:12;;;;;;;10.60;8.65;;;;;;;16.35;74.79;102257.75;4952662;29;20049;-93
2022/06/17 00:18:39;;;;;;;11.63;8.82;;;;;;;16.33;74.82;102257.00;4965379;28;20034;-94
2022/06/17 00:21:05;;;;;;;11.32;9.00;;;;;;;16.28;75.54;102267.97;4981750;28;20054;-94
2022/06/17 00:23:30;;;;;;;10.23;9.00;;;;;;;16.28;75.23;102270.63;4953989;28;20412;-93
2022/06/17 00:25:56;;;;;;;15.25;9.50;;;;;;;16.26;76.10;102269.06;4953058;28;20027;-93
2022/06/17 00:28:23;;;;;;;10.20;8.73;;;;;;;16.19;76.14;102266.03;4954106;28;20035;-94
2022/06/17 00:30:50;;;;;;;11.95;9.45;;;;;;;16.19;76.23;102260.72;4951979;28;20706;-93
2022/06/17 00:33:17;;;;;;;10.88;9.20;;;;;;;16.18;75.95;102256.38;4953389;28;20448;-94
2022/06/17 00:35:54;;;;;;;14.25;8.77;;;;;;;16.12;76.03;102267.44;4951493;29;20051;-93
2022/06/17 00:38:22;;;;;;;11.50;9.50;;;;;;;16.05;76.73;102266.22;4953004;28;20046;-93
2022/06/17 00:40:48;;;;;;;15.43;9.80;;;;;;;16.02;77.00;102276.22;4952727;29;20560;-93
2022/06/17 00:43:32;;;;;;;11.18;9.35;;;;;;;16.02;76.63;102287.69;4953421;29;20106;-92
2022/06/17 00:46:15;;;;;;;10.68;8.25;;;;;;;16.08;76.04;102283.72;4951742;29;20073;-91
2022/06/17 00:49:11;;;;;;;11.77;8.80;;;;;;;15.97;77.01;102273.88;4951420;29;20042;-91
2022/06/17 00:52:08;;;;;;;10.60;9.05;;;;;;;15.98;76.48;102270.25;4948871;28;20039;-92
2022/06/17 00:54:43;;;;;;;10.02;7.97;;;;;;;15.89;76.94;102268.31;4966334;28;20073;-92
2022/06/17 00:57:23;;;;;;;8.88;7.97;;;;;;;15.94;76.14;102247.56;4952702;29;20118;-93
2022/06/17 01:00:14;;;;;;;10.82;7.97;;;;;;;15.95;75.63;102249.25;4952557;28;20039;-92
2022/06/17 01:02:46;;;;;;;8.15;7.35;;;;;;;15.88;77.81;102271.91;4946430;28;20035;-92
2022/06/17 01:05:13;;;;;;;12.40;8.10;;;;;;;15.87;76.90;102275.53;4964459;28;20049;-92
2022/06/17 01:07:48;;;;;;;10.65;8.10;;;;;;;15.87;77.52;102267.56;4972046;28;20030;-93
2022/06/17 01:10:17;;;;;;;10.75;8.05;;;;;;;15.82;77.16;102259.09;4933363;29;20047;-92
2022/06/17 01:12:49;;;;;;;9.35;7.70;;;;;;;15.85;77.33;102265.03;4946153;29;20041;-92
2022/06/17 01:15:19;;;;;;;8.60;7.75;;;;;;;15.82;76.88;102267.06;4952568;28;20143;-93
2022/06/17 01:17:46;;;;;;;10.05;7.90;;;;;;;15.72;77.84;102266.03;4967721;28;20026;-92
2022/06/17 01:20:13;;;;;;;8.85;8.05;;;;;;;15.75;77.54;102276.44;4969236;28;20023;-93
2022/06/17 01:22:50;;;;;;;8.85;7.85;;;;;;;15.73;77.90;102278.34;4952390;28;20026;-93
2022/06/17 01:25:29;;;;;;;8.65;7.68;;;;;;;15.72;77.84;102268.69;4952235;28;20422;-93
2022/06/17 01:27:58;;;;;;;9.98;8.52;;;;;;;15.64;78.02;102259.50;4967220;28;20043;-92
2022/06/17 01:30:39;;;;;;;12.52;8.73;;;;;;;15.62;78.39;102261.41;4952175;28;20023;-92
2022/06/17 01:33:07;;;;;;;9.10;8.20;;;;;;;15.58;78.50;102262.56;4952543;28;20027;-93
2022/06/17 01:35:40;;;;;;;11.90;8.20;;;;;;;15.54;78.54;102269.03;4950991;28;20019;-92
2022/06/17 01:38:05;;;;;;;10.85;8.50;;;;;;;15.50;78.18;102264.91;4952016;28;20026;-93
2022/06/17 01:40:31;;;;;;;9.38;8.45;;;;;;;15.47;77.94;102267.78;4967537;28;20105;-94
2022/06/17 01:43:04;;;;;;;9.60;8.25;;;;;;;15.44;78.14;102275.97;4953615;29;20069;-94
2022/06/17 01:45:32;;;;;;;9.38;8.20;;;;;;;15.38;78.83;102273.75;4953332;28;20042;-94
2022/06/17 01:47:58;;;;;;;11.25;8.73;;;;;;;15.37;78.86;102280.00;4953841;28;20027;-94
2022/06/17 01:50:27;;;;;;;14.93;9.23;;;;;;;15.32;78.77;102271.53;4957055;28;20548;-94
2022/06/17 01:53:12;;;;;;;12.82;8.52;;;;;;;15.37;78.19;102274.72;4958189;28;20366;-94
2022/06/17 01:55:51;;;;;;;10.23;9.13;;;;;;;15.27;78.68;102273.69;4958828;28;20027;-94
2022/06/17 01:58:37;;;;;;;10.48;9.10;;;;;;;15.30;77.96;102273.44;4978719;28;20027;-94
2022/06/17 02:01:17;;;;;;;11.85;8.93;;;;;;;15.25;78.10;102275.59;4978173;28;20031;-94
2022/06/17 02:03:56;;;;;;;14.50;9.52;;;;;;;15.19;78.47;102270.69;4966153;28;20505;-95
2022/06/17 02:06:40;;;;;;;10.25;9.00;;;;;;;15.19;78.61;102270.69;4947027;29;20035;-95
2022/06/17 02:09:05;;;;;;;17.92;9.70;;;;;;;15.14;78.73;102267.53;4965468;29;20501;-94
2022/06/17 02:11:34;;;;;;;10.02;8.80;;;;;;;15.08;78.96;102268.81;4965422;29;20034;-94
2022/06/17 02:14:06;;;;;;;9.93;8.93;;;;;;;15.08;78.83;102263.50;4965974;28;20023;-94
2022/06/17 02:16:32;;;;;;;;;;;;;;;15.28;76.10;102270.06;4964973;28;20410;-94
2022/06/17 02:19:23;;;;;;;17.90;9.77;;;;;;;15.13;78.14;102265.81;4977058;28;19910;-94
2022/06/17 02:22:26;;;;;;;12.75;9.48;;;;;;;15.11;78.18;102275.69;4982706;28;20230;-94
2022/06/17 02:24:57;;;;;;;13.57;10.27;;;;;;;15.01;78.71;102268.38;4979524;28;20022;-94
2022/06/17 02:27:24;;;;;;;13.73;10.30;;;;;;;15.02;78.49;102270.09;4976023;28;20035;-96
2022/06/17 02:29:51;;;;;;;10.85;9.75;;;;;;;15.03;78.62;102271.78;4974135;28;20081;-94
2022/06/17 02:32:17;;;;;;;15.13;10.20;;;;;;;15.09;77.73;102261.69;4988762;28;20069;-94
2022/06/17 02:34:54;;;;;;;11.18;9.90;;;;;;;15.12;77.44;102269.44;4974288;28;20031;-94
2022/06/17 02:37:21;;;;;;;13.05;9.75;;;;;;;15.18;77.56;102263.69;4969290;28;20433;-94
2022/06/17 02:39:49;;;;;;;11.10;9.90;;;;;;;15.24;76.31;102257.97;4952875;28;20124;-94
2022/06/17 02:42:32;;;;;;;12.93;10.23;;;;;;;15.27;75.93;102261.25;4952347;29;20027;-93
2022/06/17 02:45:00;;;;;;;12.32;9.77;;;;;;;15.30;75.34;102257.53;4953178;28;20027;-94
2022/06/17 02:47:26;;;;;;;14.15;11.13;;;;;;;15.34;76.33;102261.66;4952736;29;20031;-93
2022/06/17 02:49:53;;;;;;;13.02;9.70;;;;;;;15.36;75.36;102262.41;4953474;29;20027;-94
2022/06/17 02:52:29;;;;;;;11.57;10.27;;;;;;;15.37;75.09;102253.50;4953533;28;20086;-93
2022/06/17 02:54:59;;;;;;;11.82;10.45;;;;;;;15.38;74.83;102262.28;4935163;29;20024;-94
2022/06/17 02:57:27;;;;;;;11.88;10.23;;;;;;;15.39;75.55;102264.84;4949441;29;20055;-93
2022/06/17 03:00:20;;;;;;;12.55;10.18;;;;;;;15.39;74.69;102264.84;4934717;29;20050;-94
2022/06/17 03:02:50;;;;;;;12.70;9.27;;;;;;;15.38;75.25;102265.78;4944173;29;20558;-94
2022/06/17 03:05:17;;;;;;;13.60;10.73;;;;;;;15.42;74.38;102261.97;4955834;28;20027;-94
2022/06/17 03:07:43;;;;;;;19.17;10.82;;;;;;;15.37;74.49;102248.19;4957177;28;20106;-94
2022/06/17 03:10:18;;;;;;;12.48;10.55;;;;;;;15.46;73.35;102257.28;4956320;29;20082;-93
2022/06/17 03:12:47;;;;;;;13.32;10.90;;;;;;;15.43;73.68;102258.34;4957942;29;20027;-93
2022/06/17 03:15:16;;;;;;;16.60;10.60;;;;;;;15.46;73.51;102263.44;4955317;28;20119;-93
2022/06/17 03:17:44;;;;;;;11.32;10.20;;;;;;;15.46;74.28;102258.13;4957374;28;20051;-93
2022/06/17 03:20:24;;;;;;;12.98;10.93;;;;;;;15.49;73.39;102255.25;4973982;28;20126;-93
2022/06/17 03:22:55;;;;;;;12.82;11.05;;;;;;;15.48;73.29;102265.97;4957895;29;20090;-93
2022/06/17 03:25:29;;;;;;;13.02;11.30;;;;;;;15.47;74.09;102266.94;4943050;29;20449;-93
2022/06/17 03:27:59;;;;;;;11.95;10.75;;;;;;;15.49;73.40;102268.50;4956037;29;20502;-94
2022/06/17 03:30:33;;;;;;;14.43;11.63;;;;;;;15.49;73.50;102281.78;4956069;28;20541;-93
2022/06/17 03:33:24;;;;;;;15.55;11.52;;;;;;;15.56;72.68;102277.72;4956479;28;20031;-93
2022/06/17 03:35:55;;;;;;;12.27;10.98;;;;;;;15.49;73.75;102284.44;4955418;28;20027;-93
2022/06/17 03:38:29;;;;;;;14.25;11.45;;;;;;;15.56;74.26;102285.69;4950583;29;20462;-93
2022/06/17 03:41:03;;;;;;;13.43;11.82;;;;;;;15.56;74.01;102296.28;4936859;29;20031;-92
2022/06/17 03:43:39;;;;;;;13.05;11.70;;;;;;;15.61;73.05;102293.38;4935345;29;20393;-93
2022/06/17 03:46:07;;;;;;;16.40;12.05;;;;;;;15.64;73.33;102299.28;4953426;29;20058;-93
2022/06/17 03:49:02;;;;;;;14.13;11.20;;;;;;;15.71;72.99;102301.50;4969398;28;20086;-93
2022/06/17 03:51:31;;;;;;;13.05;11.35;;;;;;;15.72;73.80;102300.53;4953335;29;20042;-93
2022/06/17 03:53:57;;;;;;;12.45;11.15;;;;;;;15.76;74.25;102297.56;4953543;29;20389;-93
2022/06/17 03:56:26;;;;;;;12.57;11.27;;;;;;;15.78;73.41;102302.75;4954729;28;20023;-92
2022/06/17 03:58:53;;;;;;;12.35;11.05;;;;;;;15.83;73.03;102292.63;4954659;28;20027;-92
2022/06/17 04:01:26;;;;;;;12.85;11.35;;;;;;;16.04;72.81;102290.22;4953320;28;20031;-93
2022/06/17 04:03:57;;;;;;;;;;;;;;;16.39;71.88;102284.91;4949803;28;20071;-93
2022/06/17 04:06:28;;;;;;;15.88;11.10;;;;;;;16.63;70.01;102285.72;4947895;29;19911;-92
2022/06/17 04:09:21;;;;;;;14.88;11.13;;;;;;;16.67;69.81;102286.38;4934249;29;20051;-92
2022/06/17 04:11:50;;;;;;;11.90;10.43;;;;;;;16.57;70.66;102292.34;4951933;28;20524;-92
2022/06/17 04:14:22;;;;;;;15.10;11.40;;;;;;;16.51;70.33;102291.97;4953425;28;20019;-91
2022/06/17 04:16:52;;;;;;;;;;;;;;;16.66;69.93;102287.31;4968390;28;20541;-92
2022/06/17 04:19:24;;;;;;;12.95;11.45;;;;;;;16.42;71.03;102287.38;4985113;28;19910;-92
2022/06/17 04:21:51;;;;;;;14.02;12.27;;;;;;;16.38;70.77;102286.72;4972485;28;20401;-92
2022/06/17 04:24:20;;;;;;;13.40;11.38;;;;;;;16.42;70.98;102272.28;4972551;28;20023;-92
2022/06/17 04:26:50;;;;;;;14.98;11.77;;;;;;;16.38;70.87;102272.59;4970279;28;20027;-92
2022/06/17 04:29:20;;;;;;;14.75;11.30;;;;;;;16.37;71.04;102270.91;4958957;28;20038;-93
2022/06/17 04:31:56;;;;;;;13.18;11.80;;;;;;;16.39;71.13;102271.63;4957210;28;20050;-92
2022/06/17 04:34:21;;;;;;;13.02;11.10;;;;;;;16.41;70.76;102269.72;4953627;29;20035;-92
2022/06/17 04:36:50;;;;;;;14.55;11.95;;;;;;;16.40;71.00;102268.00;4953334;28;20033;-93
2022/06/17 04:39:29;;;;;;;15.57;11.52;;;;;;;16.45;70.49;102273.84;4952717;28;20109;-93
2022/06/17 04:41:59;;;;;;;13.90;11.48;;;;;;;16.44;70.53;102262.38;4953074;28;20121;-92
2022/06/17 04:44:25;;;;;;;14.48;11.50;;;;;;;16.47;70.76;102262.16;4953870;28;20046;-92
2022/06/17 04:47:03;;;;;;;14.63;11.30;;;;;;;16.48;70.48;102258.53;4950719;29;20027;-93
2022/06/17 04:49:32;;;;;;;14.25;11.50;;;;;;;16.55;70.49;102249.09;4938753;28;20035;-92
2022/06/17 04:52:03;;;;;;;13.93;10.57;;;;;;;16.60;69.61;102251.41;4951362;29;20039;-93
2022/06/17 04:54:32;;;;;;;15.40;11.05;;;;;;;16.65;69.66;102251.91;4951601;28;20540;-92
2022/06/17 04:57:01;;;;;;;12.63;10.32;;;;;;;16.67;69.50;102247.34;4952627;29;20366;-93
2022/06/17 04:59:41;;;;;;;13.20;9.85;;;;;;;16.75;68.73;102244.94;4953463;28;20038;-93
2022/06/17 05:02:14;;;;;;;13.63;9.75;;;;;;;16.81;68.69;102244.47;4951762;28;20514;-94
2022/06/17 05:04:41;;;;;;;11.90;9.75;;;;;;;16.89;68.51;102242.06;4968999;28;20541;-93
2022/06/17 05:07:06;;;;;;;12.57;9.98;;;;;;;16.95;67.39;102245.19;4951937;29;20031;-93
2022/06/17 05:09:42;;;;;;;15.77;10.07;;;;;;;17.01;66.98;102247.38;4952038;29;20047;-94
2022/06/17 05:12:31;;;;;;;12.80;9.15;;;;;;;17.07;67.27;102241.56;4953331;28;20023;-94
2022/06/17 05:15:01;;;;;;;13.52;9.32;;;;;;;17.17;66.45;102255.81;4952928;28;20023;-94
2022/06/17 05:17:26;;;;;;;11.13;9.32;;;;;;;17.19;66.69;102253.88;4955117;28;20027;-94
2022/06/17 05:19:53;;;;;;;13.25;9.63;;;;;;;17.25;66.67;102247.25;4953365;28;20027;-93
2022/06/17 05:22:35;;;;;;;16.05;9.35;;;;;;;17.28;66.42;102250.50;4952788;29;20027;-94
2022/06/17 05:25:04;;;;;;;14.75;9.75;;;;;;;17.30;66.93;102256.56;4952024;29;20445;-94
2022/06/17 05:27:30;;;;;;;12.40;9.10;;;;;;;17.38;66.92;102243.47;4952904;28;20544;-93
2022/06/17 05:29:56;;;;;;;11.38;9.50;;;;;;;17.40;67.12;102248.69;4950789;29;20027;-94
2022/06/17 05:32:22;;;;;;;14.80;9.57;;;;;;;17.40;67.17;102238.88;4952889;28;20102;-94
2022/06/17 05:34:48;;;;;;;17.67;10.05;;;;;;;17.49;66.91;102230.16;4953792;29;20043;-95
2022/06/17 05:37:14;;;;;;;12.55;9.32;;;;;;;17.61;66.84;102238.09;4953312;28;20633;-94
2022/06/17 05:39:39;;;;;;;12.60;9.73;;;;;;;17.64;66.48;102235.22;4954187;28;20110;-94
2022/06/17 05:42:05;;;;;;;19.00;9.75;;;;;;;17.74;66.63;102233.50;4951429;29;20478;-95
2022/06/17 05:44:32;;;;;;;12.95;9.68;;;;;;;17.80;65.61;102239.16;4952534;28;20031;-93
2022/06/17 05:46:57;;;;;;;15.15;9.43;;;;;;;17.85;65.96;102247.63;4952777;28;20031;-94
2022/06/17 05:49:23;;;;;;;11.52;9.70;;;;;;;17.89;65.62;102234.91;4950927;29;20038;-94
2022/06/17 05:51:49;;;;;;;11.38;9.25;;;;;;;17.94;65.72;102221.19;4953608;28;20046;-94
2022/06/17 05:54:14;;;;;;;14.27;8.93;;;;;;;17.92;65.77;102216.00;4955784;29;20078;-95
2022/06/17 05:56:39;;;;;;;14.77;9.02;;;;;;;18.01;65.35;102217.91;4955309;28;20028;-95
2022/06/17 05:59:05;;;;;;;10.88;8.90;;;;;;;18.05;65.66;102216.69;4956878;28;20019;-95
2022/06/17 06:01:31;;;;;;;12.52;8.60;;;;;;;18.08;64.65;102215.59;4955895;29;20469;-94
2022/06/17 06:03:56;;;;;;;14.05;8.20;;;;;;;18.15;65.40;102222.09;4953627;28;20023;-93
2022/06/17 06:06:21;;;;;;;11.85;7.57;;;;;;;18.17;65.40;102220.13;4953869;28;20027;-95
2022/06/17 06:08:47;;;;;;;11.00;8.23;;;;;;;18.24;65.37;102209.81;4950174;28;20039;-95
2022/06/17 06:11:12;;;;;;;9.88;7.82;;;;;;;18.28;63.58;102208.56;4952878;29;20584;-94
2022/06/17 06:13:37;;;;;;;12.32;7.57;;;;;;;18.30;64.43;102214.59;4953821;28;20097;-92
2022/06/17 06:16:03;;;;;;;14.07;7.38;;;;;;;18.32;63.14;102212.66;4953732;28;20034;-95
2022/06/17 06:18:32;;;;;;;12.85;7.35;;;;;;;18.38;62.44;102214.78;4950774;29;20023;-93
2022/06/17 06:21:00;;;;;;;10.90;7.05;;;;;;;18.39;63.61;102209.31;4952521;28;20031;-92
2022/06/17 06:23:25;;;;;;;11.68;7.25;;;;;;;18.39;63.31;102203.16;4950098;29;20039;-92
2022/06/17 06:25:51;;;;;;;11.50;6.68;;;;;;;18.50;62.79;102208.44;4950035;28;20027;-84
2022/06/17 06:28:22;;;;;;;11.90;6.80;;;;;;;18.50;62.65;102211.09;4950079;29;20708;-85
2022/06/17 06:30:57;;;;;;;10.63;6.25;;;;;;;18.63;62.64;102211.75;4950029;28;20042;-84
2022/06/17 06:33:23;;;;;;;12.57;6.30;;;;;;;18.71;62.23;102227.94;4948531;29;20035;-84
2022/06/17 06:35:49;;;;;;;11.88;6.28;;;;;;;18.74;61.92;102226.81;4964369;28;20288;-84
2022/06/17 06:38:14;;;;;;;11.65;6.10;;;;;;;18.84;61.46;102221.56;4948081;29;20038;-84
2022/06/17 06:40:40;;;;;;;9.90;6.13;;;;;;;18.93;61.51;102226.94;4949588;28;20150;-84
2022/06/17 06:43:13;;;;;;;10.30;6.07;;;;;;;19.05;61.19;102228.50;4964910;28;20401;-85
2022/06/17 06:45:38;;;;;;;9.60;6.03;;;;;;;19.07;60.70;102231.03;4947151;29;20046;-84
2022/06/17 06:48:07;;;;;;;11.55;6.10;;;;;;;19.11;60.72;102229.78;4948716;29;20486;-92
2022/06/17 06:50:35;;;;;;;10.77;6.15;;;;;;;19.24;60.78;102230.41;4969907;28;20027;-93
2022/06/17 06:53:02;;;;;;;9.55;6.20;;;;;;;19.33;60.83;102223.41;4958496;28;20019;-93
2022/06/17 06:55:29;;;;;;;9.68;5.97;;;;;;;19.45;61.76;102224.13;4957866;28;20037;-93
2022/06/17 06:58:05;;;;;;;10.98;5.93;;;;;;;19.54;60.64;102226.00;4958308;28;20043;-92
2022/06/17 07:00:37;;;;;;;6.95;5.65;;;;;;;19.65;60.25;102225.91;4954623;29;20038;-93
2022/06/17 07:03:04;;;;;;;10.03;5.90;;;;;;;19.77;60.92;102235.47;4971856;28;20023;-93
2022/06/17 07:05:36;;;;;;;8.82;5.45;;;;;;;20.00;59.46;102234.19;4954813;29;20808;-92
2022/06/17 07:08:25;;;;;;;7.47;5.50;;;;;;;20.33;59.94;102240.91;4957149;28;20027;-91
2022/06/17 07:10:54;;;;;;;9.82;5.45;;;;;;;20.57;58.33;102239.66;4936230;29;20028;-93
2022/06/17 07:13:21;;;;;;;10.18;4.80;;;;;;;20.79;55.95;102227.75;4950458;28;20027;-92
2022/06/17 07:15:47;;;;;;;11.23;5.07;;;;;;;20.98;54.79;102216.97;4954574;29;20083;-93
2022/06/17 07:18:22;;;;;;;6.80;4.53;;;;;;;21.09;54.06;102215.94;4958049;28;20043;-90
2022/06/17 07:20:52;;;;;;;7.00;4.40;;;;;;;21.22;54.65;102224.47;4955209;29;20529;-92
2022/06/17 07:23:22;;;;;;;10.57;5.00;;;;;;;21.36;53.86;102221.31;4955753;28;20046;-90
2022/06/17 07:26:06;;;;;;;10.35;4.78;;;;;;;21.51;54.47;102216.28;4956372;28;20506;-95
2022/06/17 07:28:32;;;;;;;7.70;4.55;;;;;;;21.59;53.29;102217.19;4935051;29;20157;-81
2022/06/17 07:30:59;;;;;;;7.70;4.50;;;;;;;21.80;51.90;102219.59;4952120;29;20023;-85
2022/06/17 07:33:26;;;;;;;8.73;4.53;;;;;;;21.94;51.88;102214.69;4954528;28;20057;-79
2022/06/17 07:35:55;;;;;;;7.45;4.40;;;;;;;22.12;51.40;102216.38;4950835;29;20045;-84
2022/06/17 07:41:08;;;;;;;8.23;4.38;;;;;;;22.46;50.35;102213.78;4975251;28;20058;-94
2022/06/17 07:46:29;;;;;;;11.27;4.20;;;;;;;22.61;50.90;102224.78;4939947;29;20032;-94
2022/06/17 07:49:19;;;;;;;8.13;3.90;;;;;;;22.75;50.79;102221.50;4942136;29;20024;-92
2022/06/17 07:51:46;;;;;;;6.93;3.90;;;;;;;22.79;49.54;102216.63;4941905;29;20019;-96
2022/06/17 07:54:11;;;;;;;6.45;3.65;;;;;;;23.10;49.02;102220.50;4942290;29;20024;-95
2022/06/17 07:56:36;;;;;;;5.10;3.80;;;;;;;23.34;48.78;102222.47;4941374;29;20024;-93
2022/06/17 07:59:04;;;;;;;7.30;3.97;;;;;;;23.56;47.41;102221.00;4942022;29;20051;-93
2022/06/17 08:01:42;;;;;;;10.07;3.50;;;;;;;23.85;48.25;102215.19;4941635;29;20020;-95
2022/06/17 08:04:08;;;;;;;4.88;3.80;;;;;;;23.89;45.58;102213.84;4941101;29;20036;-95
2022/06/17 08:06:33;;;;;;;8.88;3.47;;;;;;;24.10;47.19;102212.50;4956510;28;20059;-94
2022/06/17 08:09:04;;;;;;;7.18;3.03;;;;;;;24.11;45.82;102225.78;4941436;29;20024;-94
2022/06/17 08:11:37;;;;;;;5.60;3.20;;;;;;;24.01;45.70;102230.47;4940215;29;20032;-95
2022/06/17 08:14:07;;;;;;;5.82;3.30;;;;;;;24.11;45.61;102223.09;4955949;28;20087;-95
2022/06/17 08:16:32;;;;;;;6.70;3.47;;;;;;;24.19;45.70;102223.09;4954794;28;20024;-93
2022/06/17 08:18:58;;;;;;;7.20;2.95;;;;;;;24.51;45.69;102232.16;4946601;29;20032;-95
2022/06/17 08:21:23;;;;;;;5.03;2.88;;;;;;;24.71;46.07;102233.44;4950725;29;20046;-92
2022/06/17 08:23:48;;;;;;;7.05;3.40;;;;;;;24.85;42.92;102232.75;4953170;29;20023;-93
2022/06/17 08:26:14;;;;;;;5.78;3.10;;;;;;;24.89;42.35;102236.78;4965439;29;20020;-94
2022/06/17 08:28:39;;;;;;;4.72;2.88;;;;;;;24.94;42.04;102229.00;4936143;29;20044;-92
2022/06/17 08:31:04;;;;;;;7.13;3.10;;;;;;;25.12;41.70;102228.78;4935253;29;20032;-94
2022/06/17 08:33:30;;;;;;;5.07;2.90;;;;;;;25.26;41.20;102216.44;4933883;29;20063;-93
2022/06/17 08:36:04;;;;;;;6.38;2.90;;;;;;;25.30;41.00;102204.31;4938116;29;20046;-93
2022/06/17 08:38:33;;;;;;;6.53;2.80;;;;;;;25.39;40.95;102203.22;4935464;29;20055;-92
2022/06/17 08:41:04;;;;;;;5.18;2.70;;;;;;;25.46;40.58;102195.28;4935339;29;20033;-89
2022/06/17 08:43:36;;;;;;;6.77;3.00;;;;;;;25.40;41.06;102188.75;4922865;29;20043;-94
2022/06/17 08:46:43;;;;;;;7.60;3.05;;;;;;;25.37;41.98;102193.66;4931627;29;20140;-93
2022/06/17 08:49:46;;;;;;;5.53;2.55;;;;;;;25.39;42.75;102199.69;4896049;29;20037;-90
2022/06/17 08:52:14;;;;;;;5.63;2.75;;;;;;;25.40;40.74;102218.38;4916666;29;20032;-93
2022/06/17 08:54:57;;;;;;;4.63;2.78;;;;;;;25.45;39.89;102216.00;4915935;29;20376;-91
2022/06/17 08:57:36;;;;;;;8.00;2.97;;;;;;;25.61;39.58;102205.09;4914343;29;20038;-90
2022/06/17 09:00:15;;;;;;;6.55;2.53;;;;;;;25.75;40.34;102211.63;4928294;29;20158;-89
2022/06/17 09:03:12;;;;;;;6.05;2.60;;;;;;;25.96;40.43;102210.94;4913241;29;20038;-89
2022/06/17 09:05:48;;;;;;;3.17;2.58;;;;;;;25.99;38.68;102215.97;4914118;29;20180;-89
2022/06/17 09:08:54;;;;;;;5.20;2.97;;;;;;;26.26;39.07;102219.94;4911658;29;20032;-89
2022/06/17 09:11:24;;;;;;;6.25;2.83;;;;;;;26.31;38.60;102212.13;4873858;29;20086;-91
2022/06/17 09:14:11;;;;;;;7.60;3.13;;;;;;;26.41;36.55;102212.72;4893752;29;20043;-92
2022/06/17 09:16:57;;;;;;;8.35;3.28;;;;;;;26.37;36.76;102199.78;4894832;29;20040;-89
2022/06/17 09:19:29;;;;;;;7.50;3.40;;;;;;;26.50;36.71;102200.00;4928522;29;20031;-91
2022/06/17 09:22:01;;;;;;;6.55;3.42;;;;;;;26.59;37.06;102195.34;4932151;29;20045;-87
2022/06/17 09:24:39;;;;;;;6.28;2.78;;;;;;;26.79;36.96;102204.56;4934017;29;20083;-92
2022/06/17 09:27:08;;;;;;;8.90;3.90;;;;;;;26.87;35.57;102211.75;4916902;29;20055;-91
2022/06/17 09:29:52;;;;;;;10.55;3.60;;;;;;;26.89;37.82;102207.00;4914847;29;20036;-93
2022/06/17 09:32:20;;;;;;;4.95;2.97;;;;;;;27.10;36.73;102202.50;4915768;29;20024;-92
2022/06/17 09:35:11;;;;;;;5.38;2.95;;;;;;;27.35;37.64;102200.31;4914668;29;20085;-93
2022/06/17 09:37:41;;;;;;;7.22;2.90;;;;;;;27.35;36.33;102204.88;4914926;29;20027;-92
2022/06/17 09:40:15;;;;;;;8.68;2.85;;;;;;;27.54;37.53;102195.28;4930076;29;20455;-91
2022/06/17 09:42:53;;;;;;;6.70;2.83;;;;;;;27.51;35.52;102193.81;4913351;29;20024;-91
2022/06/17 09:45:55;;;;;;;5.78;2.90;;;;;;;27.44;36.79;102198.31;4914198;29;20052;-91
2022/06/17 09:48:31;;;;;;;8.43;2.85;;;;;;;27.44;37.65;102201.03;4897110;29;20119;-90
2022/06/17 09:51:03;;;;;;;5.53;2.60;;;;;;;27.61;37.50;102193.47;4908909;29;20398;-91
2022/06/17 09:53:37;;;;;;;5.68;2.75;;;;;;;27.66;37.18;102201.91;4912807;29;20016;-91
2022/06/17 09:56:22;;;;;;;9.95;3.05;;;;;;;27.77;37.32;102188.69;4921228;29;20032;-91
2022/06/17 09:59:16;;;;;;;6.55;2.78;;;;;;;27.94;37.49;102194.66;4911831;29;20379;-90
2022/06/17 10:01:43;;;;;;;5.78;2.38;;;;;;;27.89;35.75;102178.19;4911367;29;20475;-90
2022/06/17 10:04:11;;;;;;;6.53;2.45;;;;;;;28.05;36.41;102179.78;4912977;29;20062;-92
2022/06/17 10:06:54;;;;;;;4.72;2.40;;;;;;;28.01;35.58;102176.59;4913440;29;20513;-91
2022/06/17 10:09:22;;;;;;;;;;;;;;;28.20;36.12;102176.97;4913160;29;20043;-90
2022/06/17 10:12:03;;;;;;;4.18;1.98;;;;;;;28.20;33.89;102171.56;4911489;29;20270;-85
2022/06/17 10:14:46;;;;;;;5.18;2.10;;;;;;;28.38;35.22;102161.06;4912347;29;20028;-90
2022/06/17 10:20:55;;;;;;;4.22;2.30;;;;;;;28.51;33.63;102158.47;4913516;29;20098;-89
2022/06/17 10:23:40;;;;;;;4.47;2.13;;;;;;;28.63;34.20;102156.03;4853778;29;20037;-89
2022/06/17 10:26:08;;;;;;;5.35;2.10;;;;;;;28.61;32.86;102160.81;4858606;29;20101;-92
2022/06/17 10:28:59;;;;;;;3.60;2.00;;;;;;;28.71;33.41;102161.25;4894945;29;20103;-90
2022/06/17 10:31:38;;;;;;;5.38;1.95;;;;;;;28.58;31.66;102151.22;4917163;29;20087;-89
2022/06/17 10:34:12;;;;;;;5.47;1.80;;;;;;;28.63;32.00;102156.84;4917948;29;20442;-90
2022/06/17 10:36:38;;;;;;;3.38;1.60;;;;;;;28.72;32.25;102160.22;4916606;29;20024;-91
2022/06/17 10:39:06;;;;;;;3.03;2.00;;;;;;;28.85;32.98;102164.91;4915548;29;20020;-90
2022/06/17 10:41:31;;;;;;;6.60;1.88;;;;;;;28.91;31.83;102153.25;4917605;29;20028;-89
2022/06/17 10:43:57;;;;;;;2.50;1.60;;;;;;;28.99;31.87;102150.38;4921299;29;20043;-89
2022/06/17 10:46:29;;;;;;;3.83;1.90;;;;;;;29.19;31.63;102155.84;4918220;29;20098;-89
2022/06/17 10:49:18;;;;;;;4.82;2.15;;;;;;;29.23;32.22;102147.13;4917909;29;20134;-90
2022/06/17 10:51:47;;;;;;;6.60;2.05;;;;;;;29.10;30.86;102147.06;4917608;29;20036;-90
2022/06/17 10:54:21;;;;;;;4.43;1.90;;;;;;;29.01;31.67;102143.69;4917521;29;20062;-90
2022/06/17 10:57:11;;;;;;;3.30;1.75;;;;;;;29.10;32.48;102144.34;4921536;29;20145;-91
2022/06/17 10:59:42;;;;;;;5.05;2.13;;;;;;;29.20;32.32;102146.66;4917460;29;20039;-89
2022/06/17 11:02:27;;;;;;;2.55;1.80;;;;;;;29.32;32.47;102134.19;4916817;29;20655;-90
2022/06/17 11:04:56;;;;;;;3.53;1.80;;;;;;;29.24;30.41;102135.22;4918795;29;20393;-90
2022/06/17 11:07:27;;;;;;;4.10;1.50;;;;;;;29.40;32.88;102127.72;4905907;29;20028;-91
2022/06/17 11:09:56;;;;;;;3.90;1.50;;;;;;;29.61;31.41;102117.53;4911994;29;20032;-92
2022/06/17 11:12:32;;;;;;;2.35;1.63;;;;;;;29.67;29.82;102113.19;4917126;29;20084;-90
2022/06/17 11:15:05;;;;;;;4.72;1.70;;;;;;;29.63;30.68;102117.38;4915605;29;20016;-91
2022/06/17 11:17:42;;;;;;;1.85;1.50;;;;;;;29.74;32.21;102103.16;4917756;29;20078;-89
2022/06/17 11:20:25;;;;;;;1.60;1.50;;;;;;;29.87;32.49;102105.00;4930688;29;20100;-90
2022/06/17 11:23:04;;;;;;;3.80;1.85;;;;;;;30.16;30.34;102109.19;4917824;29;20120;-90
2022/06/17 11:25:35;;;;;;;2.60;1.52;;;;;;;30.31;30.16;102106.22;4932817;29;20027;-89
2022/06/17 11:28:22;;;;;;;3.75;1.90;;;;;;;30.29;30.98;102098.28;4922661;29;20027;-86
2022/06/17 11:31:02;;;;;;;3.28;1.80;;;;;;;30.34;29.75;102101.19;4913222;29;20024;-86
2022/06/17 11:33:34;;;;;;;2.20;1.50;;;;;;;30.17;28.80;102100.00;4931165;29;20028;-86
2022/06/17 11:36:06;;;;;;;4.50;1.50;;;;;;;30.17;29.39;102086.41;4932613;29;20027;-87
2022/06/17 11:38:33;;;;;;;2.92;1.42;;;;;;;30.12;29.06;102088.94;4941596;29;20491;-86
2022/06/17 11:41:00;;;;;;;6.07;1.63;;;;;;;30.21;28.21;102093.09;4923055;29;20114;-87
2022/06/17 11:43:38;;;;;;;3.88;1.60;;;;;;;30.36;30.50;102092.81;4933286;29;20507;-87
2022/06/17 11:46:16;;;;;;;2.88;1.40;;;;;;;30.61;28.96;102079.38;4934459;29;20054;-87
2022/06/17 11:48:45;;;;;;;9.52;1.70;;;;;;;30.67;29.97;102078.53;4923580;29;20027;-84
2022/06/17 11:51:16;;;;;;;3.22;1.45;;;;;;;30.52;27.87;102092.34;4934304;29;20051;-82
2022/06/17 11:54:07;;;;;;;2.25;1.30;;;;;;;30.64;28.66;102078.94;4919467;29;20025;-86